Data for 09/17/2005

Time Sea-Level Adjusted Pressure Absolute Pressure Temperature Relative Humidity Dew Point   
(mb) (inHg) (mb) (inHg) (C) (F) (%) (C) (F)
00:05 1016 30 845 24.95 11 51.9 75 6.8 44.2
00:10 1016 30 845 24.95 11.3 52.3 74 6.7 44.1
00:15 1016 30 845 24.95 11.4 52.5 75 7.2 44.9
00:20 1016 30 845 24.95 10.9 51.6 75 6.8 44.2
00:25 1016 30 845 24.95 10.9 51.6 74 6.4 43.6
00:30 1016 30 845 24.95 10.9 51.6 75 6.6 43.9
00:35 1016 30 845 24.95 10.8 51.4 79 7.3 45.1
00:40 1016 30 845 24.95 10.6 51.1 78 7 44.6
00:45 1016 30 845 24.95 10.3 50.5 81 7.2 45
00:50 1016 30 845 24.95 9.6 49.3 84 7 44.6
00:55 1016 30 845 24.95 9.7 49.4 82 6.8 44.2
01:00 1016 30 845 24.95 9.7 49.5 82 6.7 44.1
01:05 1016 30 845 24.95 9.9 49.8 79 6.4 43.5
01:10 1015 29.97 845 24.95 10 50 79 6.5 43.7
01:15 1015 29.97 845 24.95 9.8 49.7 79 6.5 43.6
01:20 1015 29.97 844 24.92 9.7 49.4 80 6.5 43.6
01:25 1015 29.97 844 24.92 9.9 49.8 76 5.9 42.6
01:30 1015 29.97 844 24.92 10.5 51 71 5.4 41.8
01:35 1015 29.97 844 24.92 11 51.9 68 5.4 41.8
01:40 1015 29.97 844 24.92 11.3 52.4 67 5.5 41.9
01:45 1015 29.97 844 24.92 11.5 52.6 66 5.4 41.8
01:50 1015 29.97 844 24.92 11.6 52.8 66 5.4 41.7
01:55 1015 29.97 844 24.92 11.6 52.8 67 5.6 42.1
02:00 1015 29.97 844 24.92 11.5 52.6 66 5.5 41.8
02:05 1015 29.97 844 24.92 11.5 52.7 66 5.5 41.8
02:10 1015 29.97 844 24.92 11.5 52.7 67 5.5 42
02:15 1015 29.97 844 24.92 11.5 52.7 66 5.5 41.8
02:20 1015 29.97 844 24.92 11.5 52.7 66 5.5 41.9
02:25 1015 29.97 844 24.92 11.4 52.6 67 5.5 42
02:30 1015 29.97 844 24.92 11.4 52.6 67 5.5 41.9
02:35 1015 29.97 844 24.92 11.4 52.6 67 5.6 42
02:40 1015 29.97 844 24.92 11.4 52.6 67 5.7 42.2
02:45 1015 29.97 844 24.92 11.4 52.4 68 5.6 42.1
02:50 1015 29.97 844 24.92 11.3 52.4 68 5.7 42.2
02:55 1015 29.97 844 24.92 11.2 52.2 68 5.6 42.1
03:00 1015 29.97 844 24.92 11.2 52.2 69 5.7 42.3
03:05 1015 29.97 844 24.92 11.2 52.1 69 5.7 42.2
03:10 1015 29.97 844 24.92 11.2 52.1 68 5.6 42.2
03:15 1014 29.94 844 24.92 11.2 52.2 68 5.6 42.2
03:20 1014 29.94 843 24.89 11.2 52.1 69 5.7 42.2
03:25 1014 29.94 843 24.89 11.1 52 69 5.7 42.3
03:30 1014 29.94 843 24.89 11.2 52.1 69 5.7 42.3
03:35 1014 29.94 844 24.92 11.1 52 69 5.6 42.1
03:40 1014 29.94 843 24.89 11 51.9 69 5.6 42
03:45 1014 29.94 843 24.89 11 51.9 69 5.6 42.2
03:50 1014 29.94 843 24.89 11 51.8 69 5.6 42.1
03:55 1014 29.94 844 24.92 11 51.8 70 5.7 42.3
04:00 1015 29.97 844 24.92 10.9 51.6 70 5.7 42.2
04:05 1014 29.94 844 24.92 10.8 51.4 71 5.8 42.4
04:10 1014 29.94 843 24.89 10.7 51.3 72 5.8 42.5
04:15 1014 29.94 844 24.92 10.7 51.2 73 6 42.7
04:20 1014 29.94 844 24.92 10.6 51 73 5.9 42.6
04:25 1015 29.97 844 24.92 10.5 51 73 5.9 42.6
04:30 1015 29.97 844 24.92 10.5 50.9 73 5.9 42.7
04:35 1015 29.97 844 24.92 10.4 50.8 73 5.8 42.5
04:40 1015 29.97 844 24.92 10.4 50.7 74 5.9 42.6
04:45 1015 29.97 844 24.92 10.4 50.7 74 6 42.7
04:50 1015 29.97 844 24.92 10.3 50.6 74 5.9 42.6
04:55 1015 29.97 844 24.92 10.3 50.5 75 6 42.8
05:00 1015 29.97 844 24.92 10.2 50.4 75 6 42.8
05:05 1015 29.97 844 24.92 10.2 50.3 75 6 42.7
05:10 1015 29.97 844 24.92 10.2 50.4 75 5.9 42.7
05:15 1015 29.97 844 24.92 10.2 50.4 75 6 42.8
05:20 1015 29.97 844 24.92 10.2 50.4 76 6.1 43
05:25 1015 29.97 844 24.92 10.1 50.2 76 6.1 43
05:30 1015 29.97 845 24.95 10.1 50.2 76 6.1 43
05:35 1015 29.97 844 24.92 10 50 77 6.1 43
05:40 1015 29.97 844 24.92 10 49.9 77 6.1 42.9
05:45 1015 29.97 844 24.92 10 50.1 76 6.1 42.9
05:50 1015 29.97 844 24.92 10 50 77 6.1 43
05:55 1015 29.97 844 24.92 9.9 49.8 77 6.1 43
06:00 1015 29.97 844 24.92 9.8 49.7 78 6.2 43.1
06:05 1015 29.97 844 24.92 9.8 49.6 78 6.1 43.1
06:10 1015 29.97 844 24.92 9.7 49.5 78 6.1 43.1
06:15 1015 29.97 844 24.92 9.7 49.4 79 6.1 43.1
06:20 1015 29.97 844 24.92 9.7 49.4 79 6.2 43.2
06:25 1015 29.97 844 24.92 9.6 49.3 79 6.2 43.2
06:30 1015 29.97 844 24.92 9.6 49.2 80 6.2 43.2
06:35 1015 29.97 844 24.92 9.6 49.2 79 6.2 43.1
06:40 1015 29.97 844 24.92 9.6 49.2 80 6.2 43.2
06:45 1015 29.97 844 24.92 9.6 49.2 80 6.2 43.2
06:50 1015 29.97 844 24.92 9.6 49.3 78 6 42.8
06:55 1015 29.97 844 24.92 9.7 49.4 77 5.9 42.6
07:00 1015 29.97 844 24.92 9.8 49.6 77 5.9 42.6
07:05 1015 29.97 844 24.92 9.9 49.7 76 5.9 42.6
07:10 1015 29.97 844 24.92 9.8 49.7 77 6 42.7
07:15 1015 29.97 844 24.92 9.9 49.7 76 5.9 42.6
07:20 1015 29.97 844 24.92 9.9 49.7 76 5.9 42.6
07:25 1015 29.97 844 24.92 9.8 49.7 76 5.9 42.6
07:30 1015 29.97 844 24.92 9.8 49.7 76 5.8 42.5
07:35 1015 29.97 844 24.92 9.9 49.9 75 5.8 42.4
07:40 1015 29.97 844 24.92 10 50.1 75 5.9 42.5
07:45 1015 29.97 844 24.92 9.9 49.9 76 5.9 42.7
07:50 1015 29.97 844 24.92 9.9 49.8 77 6.1 42.9
07:55 1015 29.97 844 24.92 9.8 49.6 77 6 42.8
08:00 1015 29.97 844 24.92 9.8 49.6 77 6.1 42.9
08:05 1015 29.97 844 24.92 9.8 49.6 77 5.9 42.6
08:10 1015 29.97 844 24.92 9.9 49.8 76 6 42.7
08:15 1015 29.97 844 24.92 9.9 49.9 76 5.9 42.5
08:20 1015 29.97 844 24.92 10 49.9 76 5.9 42.6
08:25 1015 29.97 844 24.92 10 49.9 76 6 42.8
08:30 1015 29.97 844 24.92 9.9 49.9 78 6.3 43.4
08:35 1015 29.97 844 24.92 9.8 49.6 80 6.5 43.6
08:40 1015 29.97 844 24.92 9.7 49.4 82 6.8 44.2
08:45 1015 29.97 845 24.95 9.5 49.1 83 6.7 44.1
08:50 1015 29.97 845 24.95 9.2 48.5 84 6.7 44
08:55 1015 29.97 845 24.95 9.1 48.4 84 6.5 43.8
09:00 1015 29.97 845 24.95 9.2 48.6 82 6.4 43.6
09:05 1015 29.97 845 24.95 9.4 48.9 82 6.4 43.5
09:10 1015 29.97 845 24.95 9.4 48.9 82 6.6 43.8
09:15 1016 30 845 24.95 9.5 49 82 6.6 43.8
09:20 1016 30 845 24.95 9.4 48.9 82 6.4 43.6
09:25 1016 30 845 24.95 9.4 48.8 83 6.6 43.9
09:30 1016 30 845 24.95 9.3 48.7 84 6.7 44.1
09:35 1016 30 845 24.95 9.4 48.8 85 7 44.7
09:40 1016 30 845 24.95 9.3 48.7 87 7.2 45
09:45 1016 30 845 24.95 9 48.3 89 7.3 45.2
09:50 1016 30 845 24.95 8.9 48 90 7.4 45.3
09:55 1016 30 845 24.95 8.8 47.9 91 7.5 45.5
10:00 1016 30 845 24.95 8.7 47.7 93 7.6 45.7
10:05 1016 30 845 24.95 8.6 47.5 91 7.3 45.1
10:10 1016 30 845 24.95 8.6 47.5 91 7.3 45.1
10:15 1016 30 845 24.95 8.7 47.6 90 7.2 44.9
10:20 1016 30 845 24.95 8.7 47.7 91 7.3 45.1
10:25 1016 30 845 24.95 8.8 47.8 90 7.3 45.1
10:30 1016 30 845 24.95 9 48.2 89 7.3 45.1
10:35 1016 30 845 24.95 9.1 48.3 88 7.2 45
10:40 1016 30 845 24.95 9.2 48.5 88 7.3 45.1
10:45 1016 30 845 24.95 9.3 48.7 87 7.3 45.1
10:50 1016 30 845 24.95 9.3 48.7 87 7.3 45.1
10:55 1016 30 845 24.95 9.3 48.8 86 7.1 44.8
11:00 1016 30 845 24.95 9.4 49 86 7.3 45.1
11:05 1016 30 845 24.95 9.5 49 85 7.1 44.7
11:10 1016 30 845 24.95 9.6 49.2 84 7.1 44.7
11:15 1016 30 845 24.95 9.8 49.6 81 6.7 44.1
11:20 1016 30 845 24.95 9.9 49.8 80 6.7 44
11:25 1016 30 845 24.95 10 50 80 6.7 44.1
11:30 1016 30 845 24.95 10.1 50.1 81 6.9 44.4
11:35 1016 30 845 24.95 10.1 50.2 79 6.7 44.1
11:40 1016 30 845 24.95 10.3 50.5 78 6.7 44
11:45 1016 30 845 24.95 10.4 50.7 77 6.6 43.9
11:50 1016 30 845 24.95 10.4 50.8 78 6.7 44.1
11:55 1016 30 845 24.95 10.4 50.7 77 6.5 43.7
12:00 1016 30 845 24.95 10.5 50.8 76 6.5 43.7
12:05 1016 30 846 24.98 10.6 51.1 78 7 44.6
12:10 1016 30 846 24.98 10.7 51.3 77 6.9 44.5
12:15 1016 30 846 24.98 10.7 51.2 76 6.7 44
12:20 1016 30 846 24.98 10.7 51.2 76 6.7 44
12:25 1016 30 846 24.98 10.7 51.2 76 6.6 44
12:30 1017 30.03 846 24.98 10.7 51.3 76 6.7 44.1
12:35 1017 30.03 846 24.98 10.7 51.3 76 6.6 43.9
12:40 1016 30 846 24.98 10.8 51.5 75 6.6 44
12:45 1017 30.03 846 24.98 10.9 51.6 74 6.5 43.8
12:50 1017 30.03 846 24.98 11 51.8 75 6.8 44.2
12:55 1017 30.03 846 24.98 11.2 52.1 72 6.4 43.5
13:00 1017 30.03 846 24.98 11.1 51.9 72 6.3 43.3
13:05 1017 30.03 846 24.98 11.2 52.1 73 6.5 43.7
13:10 1017 30.03 846 24.98 11.2 52.2 75 6.9 44.5
13:15 1017 30.03 846 24.98 11.3 52.3 77 7.4 45.4
13:20 1017 30.03 846 24.98 10.9 51.7 82 8 46.3
13:25 1017 30.03 846 24.98 10.9 51.7 82 7.9 46.3
13:30 1017 30.03 846 24.98 11.2 52.1 82 8.2 46.8
13:35 1017 30.03 846 24.98 11.6 52.9 81 8.4 47.1
13:40 1017 30.03 846 24.98 11.3 52.4 82 8.5 47.2
13:45 1017 30.03 846 24.98 11 51.8 82 8.1 46.5
13:50 1017 30.03 846 24.98 10.7 51.3 85 8.3 47
13:55 1017 30.03 846 24.98 10.6 51.1 87 8.6 47.5
14:00 1017 30.03 846 24.98 10.4 50.8 90 8.8 47.8
14:05 1017 30.03 846 24.98 10.2 50.4 91 8.7 47.7
14:10 1017 30.03 846 24.98 10.1 50.2 90 8.5 47.4
14:15 1017 30.03 846 24.98 10.1 50.3 91 8.7 47.6
14:20 1017 30.03 846 24.98 10.4 50.6 89 8.7 47.6
14:25 1017 30.03 846 24.98 10.5 50.8 90 8.9 48
14:30 1017 30.03 846 24.98 10.3 50.6 90 8.8 47.8
14:35 1017 30.03 846 24.98 10.1 50.2 91 8.7 47.7
14:40 1017 30.03 846 24.98 9.7 49.4 92 8.4 47.1
14:45 1017 30.03 846 24.98 9.6 49.3 93 8.6 47.4
14:50 1017 30.03 846 24.98 9.6 49.3 93 8.5 47.3
14:55 1017 30.03 846 24.98 9.7 49.4 93 8.5 47.3
15:00 1017 30.03 847 25.01 9.8 49.7 91 8.4 47.2
15:05 1017 30.03 847 25.01 10.1 50.1 90 8.5 47.3
15:10 1017 30.03 847 25.01 10.3 50.5 87 8.2 46.8
15:15 1017 30.03 847 25.01 10.4 50.8 85 8 46.4
15:20 1017 30.03 847 25.01 10.4 50.7 84 7.8 46.1
15:25 1017 30.03 847 25.01 10.3 50.6 85 7.9 46.2
15:30 1017 30.03 847 25.01 10.4 50.6 83 7.7 45.8
15:35 1017 30.03 846 24.98 10.3 50.5 85 7.9 46.2
15:40 1017 30.03 846 24.98 10.3 50.6 85 7.9 46.2
15:45 1017 30.03 846 24.98 10.5 50.9 84 8 46.3
15:50 1017 30.03 846 24.98 10.4 50.8 80 7.1 44.8
15:55 1017 30.03 846 24.98 10.5 51 85 8.1 46.6
16:00 1017 30.03 846 24.98 10.9 51.5 84 8.3 47
16:05 1017 30.03 846 24.98 10.7 51.3 83 7.9 46.2
16:10 1017 30.03 846 24.98 10.5 50.9 84 8 46.3
16:15 1017 30.03 847 25.01 10.8 51.4 80 7.6 45.6
16:20 1017 30.03 847 25.01 11.1 51.9 79 7.6 45.7
16:25 1017 30.03 846 24.98 11.3 52.3 78 7.6 45.6
16:30 1017 30.03 847 25.01 11.3 52.4 76 7.3 45.2
16:35 1017 30.03 847 25.01 11.3 52.3 73 6.6 43.9
16:40 1017 30.03 847 25.01 11.4 52.5 75 7.2 45
16:45 1017 30.03 846 24.98 11.4 52.5 76 7.4 45.3
16:50 1017 30.03 846 24.98 11.5 52.7 74 7.1 44.7
16:55 1017 30.03 846 24.98 11.8 53.2 74 7.3 45.1
17:00 1017 30.03 846 24.98 12.7 54.8 70 7.4 45.2
17:05 1017 30.03 846 24.98 13 55.4 71 7.8 46.1
17:10 1017 30.03 846 24.98 12.5 54.6 72 7.7 45.8
17:15 1017 30.03 847 25.01 11.8 53.2 75 7.5 45.5
17:20 1017 30.03 847 25.01 11.8 53.2 75 7.6 45.6
17:25 1018 30.06 847 25.01 12.2 54 72 7.4 45.4
17:30 1018 30.06 847 25.01 12.4 54.3 72 7.6 45.7
17:35 1018 30.06 847 25.01 12.1 53.8 71 7.1 44.9
17:40 1018 30.06 847 25.01 11.9 53.3 72 7 44.6
17:45 1018 30.06 847 25.01 11.9 53.5 72 7.1 44.7
17:50 1018 30.06 847 25.01 11.8 53.2 72 7 44.5
17:55 1018 30.06 847 25.01 11.7 53.1 72 6.8 44.3
18:00 1018 30.06 847 25.01 11.7 53 74 7.1 44.8
18:05 1018 30.06 847 25.01 11.5 52.7 75 7.2 44.9
18:10 1018 30.06 847 25.01 11.3 52.4 76 7.3 45.1
18:15 1018 30.06 847 25.01 11.3 52.3 79 7.9 46.2
18:20 1018 30.06 847 25.01 11.1 51.9 82 8.1 46.6
18:25 1018 30.06 847 25.01 10.8 51.4 85 8.4 47.1
18:30 1018 30.06 847 25.01 10.4 50.7 85 8.1 46.5
18:35 1018 30.06 848 25.04 10 50 84 7.3 45.2
18:40 1018 30.06 848 25.04 9.6 49.3 86 7.5 45.4
18:45 1018 30.06 848 25.04 9.4 48.9 89 7.7 45.9
18:50 1019 30.09 848 25.04 9.2 48.6 91 7.8 46.1
18:55 1019 30.09 848 25.04 9.3 48.8 90 7.8 46
19:00 1019 30.09 848 25.04 9.5 49 90 7.9 46.2
19:05 1019 30.09 848 25.04 9.5 49.1 91 8.1 46.5
19:10 1019 30.09 848 25.04 9.3 48.8 91 8 46.4
19:15 1019 30.09 848 25.04 9.3 48.7 91 7.9 46.2
19:20 1019 30.09 848 25.04 9.2 48.6 91 7.8 46
19:25 1019 30.09 848 25.04 8.8 47.8 92 7.5 45.5
19:30 1019 30.09 848 25.04 8 46.5 93 6.9 44.4
19:35 1019 30.09 848 25.04 7.5 45.6 94 6.6 43.9
19:40 1019 30.09 848 25.04 7.3 45.1 95 6.5 43.7
19:45 1019 30.09 848 25.04 7.4 45.2 95 6.5 43.8
19:50 1019 30.09 848 25.04 7.5 45.6 95 6.8 44.2
19:55 1019 30.09 848 25.04 7.7 45.8 94 6.7 44.1
20:00 1019 30.09 848 25.04 7.8 46 93 6.7 44.1
20:05 1019 30.09 848 25.04 7.9 46.3 94 7 44.5
20:10 1019 30.09 848 25.04 8 46.3 92 6.7 44
20:15 1019 30.09 848 25.04 7.9 46.2 92 6.6 44
20:20 1019 30.09 848 25.04 7.8 46 91 6.3 43.4
20:25 1019 30.09 848 25.04 7.8 46 91 6.4 43.5
20:30 1019 30.09 848 25.04 7.9 46.2 91 6.5 43.7
20:35 1019 30.09 849 25.07 7.9 46.2 90 6.3 43.4
20:40 1019 30.09 849 25.07 7.8 46 91 6.4 43.5
20:45 1019 30.09 849 25.07 7.8 46 90 6.2 43.2
20:50 1019 30.09 849 25.07 7.7 45.8 89 6 42.8
20:55 1019 30.09 849 25.07 7.7 45.8 89 5.9 42.6
21:00 1019 30.09 849 25.07 7.6 45.7 89 6 42.8
21:05 1020 30.12 849 25.07 7.7 45.8 90 6.2 43.1
21:10 1020 30.12 849 25.07 7.4 45.3 94 6.4 43.5
21:15 1020 30.12 849 25.07 7.4 45.2 89 5.7 42.2
21:20 1020 30.12 849 25.07 7.4 45.2 90 5.8 42.5
21:25 1019 30.09 849 25.07 7.3 45.1 92 6.1 42.9
21:30 1019 30.09 849 25.07 7.2 45 92 6 42.9
21:35 1019 30.09 849 25.07 7.2 45 90 5.6 42.1
21:40 1019 30.09 849 25.07 7.3 45.2 89 5.6 42.1
21:45 1020 30.12 849 25.07 7.7 45.9 85 5.4 41.7
21:50 1020 30.12 849 25.07 7.9 46.3 86 5.7 42.3
21:55 1019 30.09 849 25.07 7.9 46.2 87 5.8 42.4
22:00 1020 30.12 849 25.07 7.9 46.1 87 5.8 42.5
22:05 1019 30.09 849 25.07 7.7 45.9 89 6 42.7
22:10 1019 30.09 849 25.07 7.5 45.5 89 5.8 42.5
22:15 1019 30.09 849 25.07 7.7 45.8 90 6.1 43
22:20 1019 30.09 849 25.07 7.7 45.9 90 6.1 43.1
22:25 1019 30.09 849 25.07 7.6 45.7 91 6.3 43.3
22:30 1019 30.09 849 25.07 7.4 45.3 92 6.1 43
22:35 1019 30.09 849 25.07 7.3 45.1 91 5.9 42.6
22:40 1019 30.09 849 25.07 7.2 45 91 5.9 42.5
22:45 1019 30.09 849 25.07 7.2 45 92 6 42.8
22:50 1019 30.09 849 25.07 7.3 45.1 90 5.7 42.2
22:55 1019 30.09 849 25.07 7.1 44.9 93 6.1 43
23:00 1020 30.12 849 25.07 7.1 44.7 93 6.1 42.9
23:05 1020 30.12 849 25.07 7 44.7 93 6 42.8
23:10 1020 30.12 849 25.07 7 44.6 92 5.8 42.5
23:15 1020 30.12 849 25.07 7.1 44.8 91 5.8 42.5
23:20 1020 30.12 849 25.07 7.2 44.9 92 6 42.8
23:25 1020 30.12 849 25.07 7.1 44.8 94 6.2 43.1
23:30 1020 30.12 849 25.07 7.1 44.8 95 6.3 43.3
23:35 1020 30.12 849 25.07 7.2 44.9 94 6.3 43.3
23:40 1020 30.12 849 25.07 7.1 44.9 94 6.2 43.2
23:45 1020 30.12 849 25.07 7.2 45 93 6.2 43.1
23:50 1020 30.12 849 25.07 7.3 45.1 93 6.2 43.2
23:55 1020 30.12 849 25.07 7.3 45.2 93 6.2 43.2
24:00 1020 30.12 849 25.07 7.4 45.4 93 6.4 43.5